Information Last Ob Photographs Calibration Meteogram Network Table Neighbors Monthly Summaries Observation History Wind Roses Custom Wind Roses Data Calendar Satellite Cloud Product Download

Satellite Cloud Product

NESDIS produces a Satellite Cloud Product (SCP) that supplements the ASOS ceilometer readings. This page merges the SCP data with the METAR observations for a given UTC date. Cloud level values are presented in feet above ground level. ECA represents estimated cloud amount expressed in percentage. An IEM Web Service provided the following JSON dataset for this page. Data is available for some sites back to 1993.

Year: Month: Day: Time Order:

 

SCP Valid UTCSatellite East SounderSatellite West SounderASOS METAR Report
Mid CloudsHigh CloudsLevels [ft]ECA [%]Mid CloudsHigh CloudsLevels [ft]ECA [%]Levels ftMETAR
0050ZOVC24000 - 3100084OVC24000 - 3100081SCT@2600
KAMW 150053Z AUTO 06003KT 10SM SCT026 22/17 A3004 RMK AO2 SLP166 T02170167
0150ZBKN13000 - 3600059BKN15000 - 3700062CLR KAMW 150153Z AUTO 08005KT 10SM CLR 21/17 A3003 RMK AO2 SLP163 T02060167
0250ZBKN14000 - 3700041BKN15000 - 3700050CLR KAMW 150253Z AUTO 08004KT 10SM CLR 20/17 A3004 RMK AO2 SLP165 T02000167 55001
0350ZBKN16000 - 3800044BKN15000 - 3700056CLR KAMW 150353Z AUTO 00000KT 10SM CLR 18/17 A3003 RMK AO2 SLP163 T01830167
0450ZBKN14000 - 3700057BKN14000 - 3600057CLR KAMW 150453Z AUTO 08004KT 10SM CLR 19/17 A3004 RMK AO2 SLP164 T01890167
0550ZSCT13000 - 3800015BKN13000 - 3700031CLR KAMW 150553Z AUTO 00000KT 10SM CLR 18/16 A3005 RMK AO2 SLP166 T01780161 10222 20172 402560172 53003
0650ZSCT17000 - 3800022-CLR KAMW 150653Z AUTO 09003KT 10SM CLR 18/16 A3004 RMK AO2 SLP165 T01780161
0750ZSCT34000 - 390001-CLR KAMW 150753Z AUTO 00000KT 10SM CLR 17/16 A3005 RMK AO2 SLP168 T01670156
0850ZSCT34000 - 390002-CLR KAMW 150853Z AUTO 00000KT 8SM CLR 16/14 A3006 RMK AO2 SLP172 T01560144 53004
0950ZSCT37000 - 390003-CLR KAMW 150953Z AUTO 08003KT 10SM CLR 17/16 A3005 RMK AO2 SLP171 T01670156
1050ZSCT31000 - 370004-CLR KAMW 151053Z AUTO 08005KT 8SM CLR 17/16 A3005 RMK AO2 SLP171 T01670161
1150ZSCT17000 - 380008-CLR KAMW 151153Z AUTO 11003KT 3SM BR CLR 16/16 A3006 RMK AO2 SLP173 T01560156 10178 20150 53001
1250ZSCT14000 - 3800025CLR-0CLR KAMW 151253Z AUTO VRB04KT 9SM CLR 18/17 A3007 RMK AO2 SLP176 T01780167
1350ZBKN15000 - 3900032BKN13000 - 4600033CLR KAMW 151353Z AUTO 00000KT 10SM CLR 19/17 A3009 RMK AO2 SLP183 T01890172
1450ZOVC30000 - 4000064BKN22000 - 4600038SCT@1200
SCT@3000
KAMW 151453Z AUTO 00000KT 10SM SCT012 SCT030 21/17 A3011 RMK AO2 SLP189 T02060172 53016
1550ZOVC30000 - 4000071BKN23000 - 4600048SCT@1700
SCT@2400
OVC@3100
KAMW 151553Z AUTO 16004KT 10SM SCT017 SCT024 OVC031 22/17 A3011 RMK AO2 SLP189 T02170172
1650ZOVC30000 - 3800075BKN31000 - 4000063FEW@2600
SCT@3200
KAMW 151653Z AUTO 13004KT 10SM FEW026 SCT032 21/17 A3009 RMK AO2 SLP182 T02110172
1750ZOVC26000 - 3800066BKN24000 - 3900054FEW@8000
BKN@12000
KAMW 151753Z AUTO 10005KT 10SM -RA FEW080 BKN120 21/18 A3006 RMK AO2 RAB18 SLP174 P0000 60000 T02060178 10217 20156 58016
1850ZOVC24000 - 3800060BKN23000 - 3900049FEW@10000
SCT@12000
KAMW 151853Z AUTO 11006KT 10SM FEW100 SCT120 21/18 A3006 RMK AO2 RAE18 SLP174 P0001 T02110178
1950ZOVC28000 - 3600064BKN30000 - 3900055OVC@11000
KAMW 151953Z AUTO 00000KT 10SM -RA OVC110 21/18 A3009 RMK AO2 RAB28 SLP184 P0000 T02110183